Time;durP1;ratioP1;P1;durP2;ratioP2;P2;SDS_P1;SDS_P2;PMS_P1;PMS_P2;Temp;Humidity;BMP_temperature;BMP_pressure;BME280_temperature;BME280_humidity;BME280_pressure;Samples;Min_cycle;Max_cycle;Signal;HPM_P1;HPM_P2
2021/12/23 00:01:41;;;;;;;103.97;63.17;;;-1.50;99.90;;;;;;4955660;29;20055;-72
2021/12/23 00:04:12;;;;;;;115.03;70.63;;;-1.50;99.90;;;;;;4955603;29;20039;-78
2021/12/23 00:06:39;;;;;;;117.22;70.28;;;-1.50;99.90;;;;;;4954892;29;20055;-78
2021/12/23 00:09:05;;;;;;;105.03;65.72;;;-1.60;99.90;;;;;;4955380;29;20028;-77
2021/12/23 00:11:31;;;;;;;102.10;61.42;;;-1.60;99.90;;;;;;4955517;29;20038;-77
2021/12/23 00:14:09;;;;;;;91.60;59.95;;;-1.60;99.90;;;;;;4955275;29;20025;-77
2021/12/23 00:19:17;;;;;;;89.07;60.20;;;-1.60;99.90;;;;;;4955417;29;20035;-74
2021/12/23 00:24:28;;;;;;;92.07;56.28;;;-1.60;99.90;;;;;;4955131;29;20490;-77
2021/12/23 00:26:54;;;;;;;91.38;60.10;;;-1.70;99.90;;;;;;4954838;29;20062;-77
2021/12/23 00:29:20;;;;;;;86.00;56.53;;;-1.70;99.90;;;;;;4955050;29;20028;-71
2021/12/23 00:31:46;;;;;;;96.93;59.55;;;-1.70;99.90;;;;;;4954918;29;20130;-73
2021/12/23 00:34:12;;;;;;;103.15;63.78;;;-1.70;99.90;;;;;;4955005;29;20386;-77
2021/12/23 00:36:41;;;;;;;98.38;57.65;;;-1.70;99.90;;;;;;4954155;29;20047;-78
2021/12/23 00:39:08;;;;;;;91.68;55.53;;;-1.70;99.90;;;;;;4953582;28;20118;-77
2021/12/23 00:41:34;;;;;;;93.43;57.65;;;-1.70;99.90;;;;;;4954043;28;20097;-76
2021/12/23 00:44:00;;;;;;;93.72;57.80;;;-1.70;99.90;;;;;;4954611;28;20470;-75
2021/12/23 00:46:26;;;;;;;103.22;61.45;;;-1.70;99.90;;;;;;4954671;29;20028;-78
2021/12/23 00:48:52;;;;;;;95.95;59.42;;;-1.70;99.90;;;;;;4954682;28;20500;-70
2021/12/23 00:51:19;;;;;;;91.20;55.72;;;-1.70;99.90;;;;;;4956482;29;20027;-73
2021/12/23 00:53:49;;;;;;;85.75;52.08;;;-1.70;99.90;;;;;;4956858;29;20038;-76
2021/12/23 00:56:15;;;;;;;89.78;53.85;;;-1.80;99.90;;;;;;4957499;29;20031;-71
2021/12/23 00:58:41;;;;;;;92.90;57.72;;;-1.80;99.90;;;;;;4956526;29;20470;-80
2021/12/23 01:01:07;;;;;;;104.18;56.90;;;-1.90;99.90;;;;;;4956748;29;20100;-79
2021/12/23 01:03:34;;;;;;;86.65;57.97;;;-1.80;99.90;;;;;;4954572;28;20039;-74
2021/12/23 01:06:01;;;;;;;76.75;49.40;;;-1.80;99.90;;;;;;4954099;29;20051;-70
2021/12/23 01:08:27;;;;;;;81.60;54.72;;;-1.80;99.90;;;;;;4954860;29;20031;-78
2021/12/23 01:10:56;;;;;;;96.35;57.83;;;-1.90;99.90;;;;;;4955764;28;20550;-79
2021/12/23 01:13:27;;;;;;;75.47;51.00;;;-1.90;99.90;;;;;;4957402;29;20481;-78
2021/12/23 01:18:29;;;;;;;81.20;50.40;;;-2.00;99.90;;;;;;4957464;29;20051;-77
2021/12/23 01:21:03;;;;;;;77.22;51.35;;;-2.00;99.90;;;;;;4956271;29;20440;-79
2021/12/23 01:23:31;;;;;;;116.80;75.75;;;-2.00;99.90;;;;;;4956690;29;20031;-75
2021/12/23 01:25:57;;;;;;;114.35;68.18;;;-2.10;99.90;;;;;;4957081;28;20027;-78
2021/12/23 01:28:25;;;;;;;89.80;53.90;;;-2.10;99.90;;;;;;4954237;29;20035;-71
2021/12/23 01:30:51;;;;;;;76.97;50.90;;;-2.20;99.90;;;;;;4953941;29;20024;-78
2021/12/23 01:33:17;;;;;;;86.18;57.10;;;-2.30;99.90;;;;;;4954510;29;20394;-70
2021/12/23 01:35:45;;;;;;;89.50;59.13;;;-2.30;99.90;;;;;;4954103;28;20023;-78
2021/12/23 01:38:11;;;;;;;84.28;57.08;;;-2.40;99.90;;;;;;4957467;29;20505;-78
2021/12/23 01:40:37;;;;;;;96.13;62.50;;;-2.40;99.90;;;;;;4956285;29;20083;-75
2021/12/23 01:43:04;;;;;;;112.32;71.22;;;-2.50;99.90;;;;;;4954654;29;20424;-70
2021/12/23 01:45:33;;;;;;;107.72;67.28;;;-2.40;99.90;;;;;;4954034;29;20023;-78
2021/12/23 01:47:59;;;;;;;118.43;77.22;;;-2.40;99.90;;;;;;4954093;29;20038;-71
2021/12/23 01:50:27;;;;;;;93.20;58.30;;;-2.40;99.90;;;;;;4954093;29;20047;-78
2021/12/23 01:52:59;;;;;;;84.35;54.65;;;-2.30;99.90;;;;;;4954478;28;20041;-76
2021/12/23 01:55:26;;;;;;;102.90;69.85;;;-2.30;99.90;;;;;;4957895;29;20074;-76
2021/12/23 01:57:53;;;;;;;113.75;76.13;;;-2.20;99.90;;;;;;4957527;29;20070;-76
2021/12/23 02:00:21;;;;;;;94.50;62.03;;;-2.20;99.90;;;;;;4956936;29;20464;-70
2021/12/23 02:02:49;;;;;;;89.15;59.08;;;-2.20;99.90;;;;;;4957764;29;20027;-73
2021/12/23 02:05:15;;;;;;;85.20;55.38;;;-2.20;99.90;;;;;;4957433;29;20561;-73
2021/12/23 02:07:41;;;;;;;99.40;60.35;;;-2.10;99.90;;;;;;4957589;29;20036;-76
2021/12/23 02:10:08;;;;;;;96.22;61.92;;;-2.10;99.90;;;;;;4957551;29;20031;-77
2021/12/23 02:12:34;;;;;;;109.88;68.35;;;-2.10;99.90;;;;;;4957506;29;20051;-70
2021/12/23 02:15:00;;;;;;;113.13;70.60;;;-2.10;99.90;;;;;;4957580;29;20038;-71
2021/12/23 02:17:26;;;;;;;100.60;61.25;;;-2.10;99.90;;;;;;4957471;29;20043;-77
2021/12/23 02:19:53;;;;;;;99.10;62.70;;;-2.10;99.90;;;;;;4957454;29;20102;-76
2021/12/23 02:22:19;;;;;;;111.20;71.07;;;-2.10;99.90;;;;;;4957445;29;20031;-71
2021/12/23 02:24:45;;;;;;;110.65;67.20;;;-2.00;99.90;;;;;;4957354;29;20019;-77
2021/12/23 02:27:11;;;;;;;111.10;67.05;;;-2.00;99.90;;;;;;4957377;29;20381;-73
2021/12/23 02:29:37;;;;;;;97.00;63.15;;;-2.00;99.90;;;;;;4957324;29;20027;-76
2021/12/23 02:32:03;;;;;;;96.97;59.08;;;-2.00;99.90;;;;;;4957403;29;20139;-77
2021/12/23 02:34:29;;;;;;;104.90;61.45;;;-2.00;99.90;;;;;;4957090;29;20063;-74
2021/12/23 02:36:58;;;;;;;101.65;61.65;;;-2.00;99.90;;;;;;4956927;29;20074;-77
2021/12/23 02:39:26;;;;;;;92.80;55.17;;;-2.00;99.90;;;;;;4957149;29;20067;-71
2021/12/23 02:41:52;;;;;;;79.55;51.20;;;-2.00;99.90;;;;;;4956997;29;20050;-70
2021/12/23 02:44:18;;;;;;;93.07;55.10;;;-2.00;99.90;;;;;;4956943;29;20466;-70
2021/12/23 02:46:45;;;;;;;85.03;52.20;;;-2.00;99.90;;;;;;4957269;28;20102;-77
2021/12/23 02:49:12;;;;;;;88.65;52.65;;;-2.10;99.90;;;;;;4956897;29;20027;-71
2021/12/23 02:51:38;;;;;;;94.97;58.03;;;-2.10;99.90;;;;;;4956679;29;20066;-76
2021/12/23 02:54:04;;;;;;;81.35;51.17;;;-2.20;99.90;;;;;;4956912;28;20058;-77
2021/12/23 02:56:31;;;;;;;88.43;57.33;;;-2.20;99.90;;;;;;4956761;29;20090;-73
2021/12/23 02:58:57;;;;;;;72.45;49.20;;;-2.20;99.90;;;;;;4956774;29;20027;-77
2021/12/23 03:01:24;;;;;;;85.93;54.58;;;-2.30;99.90;;;;;;4956694;29;20027;-72
2021/12/23 03:03:51;;;;;;;90.85;60.28;;;-2.30;99.90;;;;;;4956307;28;20493;-71
2021/12/23 03:06:18;;;;;;;95.75;57.25;;;-2.30;99.90;;;;;;4956229;29;20605;-76
2021/12/23 03:08:50;;;;;;;86.53;56.08;;;-2.30;99.90;;;;;;4956190;29;20049;-77
2021/12/23 03:11:19;;;;;;;93.72;58.47;;;-2.30;99.90;;;;;;4956335;29;20110;-77
2021/12/23 03:13:46;;;;;;;83.20;53.72;;;-2.30;99.90;;;;;;4954860;29;20023;-77
2021/12/23 03:16:13;;;;;;;117.38;77.25;;;-2.40;99.90;;;;;;4956074;29;20078;-76
2021/12/23 03:18:39;;;;;;;100.50;63.55;;;-2.40;99.90;;;;;;4956427;28;20037;-76
2021/12/23 03:21:05;;;;;;;131.38;80.75;;;-2.40;99.90;;;;;;4956205;28;20466;-76
2021/12/23 03:23:32;;;;;;;81.82;53.88;;;-2.50;99.90;;;;;;4940373;29;20032;-70
2021/12/23 03:25:59;;;;;;;76.47;48.83;;;-2.40;99.90;;;;;;4936834;29;20016;-78
2021/12/23 03:28:25;;;;;;;87.35;52.65;;;-2.50;99.90;;;;;;4937009;29;20039;-75
2021/12/23 03:30:51;;;;;;;91.22;55.67;;;-2.50;99.90;;;;;;4936926;29;20051;-76
2021/12/23 03:33:18;;;;;;;88.85;55.15;;;-2.50;99.90;;;;;;4936611;29;20024;-70
2021/12/23 03:35:45;;;;;;;100.72;59.30;;;-2.50;99.90;;;;;;4954535;29;20402;-76
2021/12/23 03:38:11;;;;;;;96.70;57.00;;;-2.60;99.90;;;;;;4955696;29;20486;-77
2021/12/23 03:40:38;;;;;;;81.93;54.25;;;-2.50;99.90;;;;;;4955783;29;20027;-76
2021/12/23 03:43:05;;;;;;;87.55;53.28;;;-2.60;99.90;;;;;;4955802;29;20470;-78
2021/12/23 03:45:31;;;;;;;82.38;52.00;;;-2.60;99.90;;;;;;4956135;29;20379;-75
2021/12/23 03:47:57;;;;;;;87.68;55.50;;;-2.60;99.90;;;;;;4955587;29;20023;-70
2021/12/23 03:50:25;;;;;;;76.43;49.70;;;-2.60;99.90;;;;;;4955579;29;20023;-71
2021/12/23 03:52:53;;;;;;;99.47;63.42;;;-2.60;99.90;;;;;;4955432;29;20023;-77
2021/12/23 03:55:18;;;;;;;88.10;56.45;;;-2.60;99.90;;;;;;4955323;29;20363;-76
2021/12/23 03:57:46;;;;;;;81.50;51.05;;;-2.60;99.90;;;;;;4954878;29;20053;-76
2021/12/23 04:00:15;;;;;;;92.57;52.45;;;-2.60;99.90;;;;;;4955615;29;20023;-72
2021/12/23 04:02:42;;;;;;;79.88;51.83;;;-2.60;99.90;;;;;;4955485;29;20035;-76
2021/12/23 04:05:08;;;;;;;83.43;54.72;;;-2.60;99.90;;;;;;4954944;29;20111;-70
2021/12/23 04:07:35;;;;;;;85.32;52.53;;;-2.60;99.90;;;;;;4955185;29;20039;-77
2021/12/23 04:10:02;;;;;;;88.65;54.90;;;-2.60;99.90;;;;;;4955268;29;20453;-73
2021/12/23 04:12:28;;;;;;;94.70;56.83;;;-2.60;99.90;;;;;;4955265;29;20470;-74
2021/12/23 04:14:54;;;;;;;84.82;54.47;;;-2.50;99.90;;;;;;4955098;29;20027;-77
2021/12/23 04:17:19;;;;;;;98.97;53.08;;;-2.50;99.90;;;;;;4954140;28;20039;-76
2021/12/23 04:19:46;;;;;;;86.43;51.05;;;-2.40;99.90;;;;;;4955252;29;20386;-78
2021/12/23 04:22:13;;;;;;;86.13;52.72;;;-2.40;99.90;;;;;;4955093;29;20138;-78
2021/12/23 04:24:39;;;;;;;97.30;56.72;;;-2.30;99.90;;;;;;4954976;29;20498;-77
2021/12/23 04:27:05;;;;;;;92.80;53.63;;;-2.30;99.90;;;;;;4954678;29;20059;-77
2021/12/23 04:29:31;;;;;;;90.72;54.63;;;-2.30;99.90;;;;;;4955173;28;20054;-77
2021/12/23 04:31:59;;;;;;;100.30;58.20;;;-2.30;99.90;;;;;;4954803;29;20027;-77
2021/12/23 04:34:26;;;;;;;93.82;56.13;;;-2.30;99.90;;;;;;4954736;28;20034;-77
2021/12/23 04:36:53;;;;;;;96.00;56.72;;;-2.30;99.90;;;;;;4954638;28;20031;-70
2021/12/23 04:39:19;;;;;;;106.35;60.85;;;-2.30;99.90;;;;;;4954871;28;20485;-75
2021/12/23 04:41:45;;;;;;;104.00;58.38;;;-2.40;99.90;;;;;;4954524;29;20038;-76
2021/12/23 04:44:11;;;;;;;108.00;61.88;;;-2.50;99.90;;;;;;4954653;29;20019;-70
2021/12/23 04:46:37;;;;;;;93.65;59.45;;;-2.50;99.90;;;;;;4954712;28;20042;-76
2021/12/23 04:49:03;;;;;;;91.55;57.22;;;-2.50;99.90;;;;;;4954463;29;20055;-74
2021/12/23 04:51:29;;;;;;;94.07;55.83;;;-2.50;99.90;;;;;;4954638;29;20031;-71
2021/12/23 04:53:54;;;;;;;95.25;59.97;;;-2.60;99.90;;;;;;4954649;29;20059;-72
2021/12/23 04:56:20;;;;;;;91.00;57.28;;;-2.60;99.90;;;;;;4954449;29;20078;-70
2021/12/23 04:58:46;;;;;;;86.75;55.45;;;-2.60;99.90;;;;;;4954398;29;20360;-70
2021/12/23 05:01:21;;;;;;;94.35;53.92;;;-2.60;99.90;;;;;;4954285;29;20027;-77
2021/12/23 05:03:48;;;;;;;103.53;58.13;;;-2.50;99.90;;;;;;4937216;29;20031;-71
2021/12/23 05:06:17;;;;;;;88.93;54.42;;;-2.60;99.90;;;;;;4965851;29;20054;-77
2021/12/23 05:08:43;;;;;;;95.97;57.42;;;-2.50;99.90;;;;;;4954135;29;20031;-71
2021/12/23 05:11:09;;;;;;;102.15;58.13;;;-2.60;99.90;;;;;;4953969;29;20047;-74
2021/12/23 05:13:36;;;;;;;99.88;57.42;;;-2.60;99.90;;;;;;4954292;29;20070;-77
2021/12/23 05:16:02;;;;;;;93.93;55.47;;;-2.60;99.90;;;;;;4953993;29;20477;-76
2021/12/23 05:18:28;;;;;;;93.95;54.88;;;-2.50;99.90;;;;;;4954010;29;20090;-74
2021/12/23 05:20:54;;;;;;;94.68;58.08;;;-2.50;99.90;;;;;;4954236;29;20027;-77
2021/12/23 05:23:20;;;;;;;96.22;56.50;;;-2.60;99.90;;;;;;4954142;29;20501;-76
2021/12/23 05:25:46;;;;;;;102.28;60.92;;;-2.60;99.90;;;;;;4954056;29;20066;-71
2021/12/23 05:28:13;;;;;;;98.13;63.85;;;-2.60;99.90;;;;;;4953707;29;20405;-71
2021/12/23 05:30:40;;;;;;;95.00;59.10;;;-2.60;99.90;;;;;;4954079;29;20043;-72
2021/12/23 05:33:06;;;;;;;94.10;56.65;;;-2.60;99.90;;;;;;4954131;29;20023;-77
2021/12/23 05:35:32;;;;;;;95.40;56.92;;;-2.60;99.90;;;;;;4953925;29;20397;-71
2021/12/23 05:37:58;;;;;;;90.70;52.25;;;-2.60;99.90;;;;;;4954478;28;20043;-77
2021/12/23 05:40:28;;;;;;;86.03;51.55;;;-2.50;99.90;;;;;;4953956;29;20059;-75
2021/12/23 05:42:56;;;;;;;92.45;56.72;;;-2.50;99.90;;;;;;4954134;29;20105;-77
2021/12/23 05:45:22;;;;;;;97.97;54.22;;;-2.50;99.90;;;;;;4954166;29;20481;-71
2021/12/23 05:47:49;;;;;;;95.15;56.47;;;-2.50;99.90;;;;;;4953991;29;20028;-77
2021/12/23 05:50:16;;;;;;;100.32;57.30;;;-2.50;99.90;;;;;;4954105;29;20015;-76
2021/12/23 05:52:43;;;;;;;101.20;57.83;;;-2.50;99.90;;;;;;4953797;29;20070;-77
2021/12/23 05:55:10;;;;;;;111.88;63.28;;;-2.50;99.90;;;;;;4954200;29;20024;-76
2021/12/23 05:57:38;;;;;;;102.53;61.70;;;-2.50;99.90;;;;;;4953893;29;20047;-77
2021/12/23 06:00:16;;;;;;;103.68;61.83;;;-2.60;99.90;;;;;;4953859;29;20024;-76
2021/12/23 06:02:42;;;;;;;113.15;65.18;;;-2.60;99.90;;;;;;4953375;29;20481;-72
2021/12/23 06:05:09;;;;;;;108.75;63.40;;;-2.50;99.90;;;;;;4952879;29;20051;-72
2021/12/23 06:07:35;;;;;;;123.05;69.25;;;-2.50;99.90;;;;;;4953368;29;20036;-73
2021/12/23 06:10:00;;;;;;;115.88;67.10;;;-2.50;99.90;;;;;;4953245;29;20055;-77
2021/12/23 06:12:26;;;;;;;113.22;60.08;;;-2.60;99.90;;;;;;4952933;29;20030;-77
2021/12/23 06:14:53;;;;;;;102.88;59.17;;;-2.60;99.90;;;;;;4953369;29;20094;-73
2021/12/23 06:17:19;;;;;;;95.80;58.30;;;-2.60;99.90;;;;;;4953459;29;20043;-75
2021/12/23 06:19:44;;;;;;;97.97;55.38;;;-2.60;99.90;;;;;;4953153;29;20398;-77
2021/12/23 06:22:13;;;;;;;117.68;65.00;;;-2.60;99.90;;;;;;4953310;29;20102;-77
2021/12/23 06:24:43;;;;;;;98.57;56.95;;;-2.60;99.90;;;;;;4952612;29;20114;-77
2021/12/23 06:27:09;;;;;;;100.75;59.00;;;-2.60;99.90;;;;;;4952517;29;20039;-77
2021/12/23 06:29:34;;;;;;;105.60;61.60;;;-2.60;99.90;;;;;;4952686;29;20024;-77
2021/12/23 06:32:00;;;;;;;98.75;58.53;;;-2.60;99.90;;;;;;4952934;29;20032;-74
2021/12/23 06:34:26;;;;;;;104.63;62.17;;;-2.50;99.90;;;;;;4952779;29;20024;-71
2021/12/23 06:36:52;;;;;;;96.20;57.85;;;-2.50;99.90;;;;;;4953271;29;20057;-77
2021/12/23 06:39:18;;;;;;;101.55;61.33;;;-2.50;99.90;;;;;;4953497;28;20036;-75
2021/12/23 06:41:44;;;;;;;112.35;67.57;;;-2.50;99.90;;;;;;4956519;29;20027;-76
2021/12/23 06:44:09;;;;;;;107.45;65.10;;;-2.50;99.90;;;;;;4956511;29;20509;-74
2021/12/23 06:46:35;;;;;;;124.35;68.50;;;-2.40;99.90;;;;;;4956086;29;20079;-75
2021/12/23 06:49:02;;;;;;;122.20;66.10;;;-2.40;99.90;;;;;;4955309;29;20024;-76
2021/12/23 06:51:28;;;;;;;119.07;65.75;;;-2.30;99.90;;;;;;4956183;29;20059;-76
2021/12/23 06:53:57;;;;;;;113.10;64.95;;;-2.30;99.90;;;;;;4956414;29;20075;-75
2021/12/23 06:56:23;;;;;;;112.82;64.70;;;-2.20;99.90;;;;;;4956336;29;20035;-74
2021/12/23 06:58:49;;;;;;;111.38;65.55;;;-2.10;99.90;;;;;;4956514;29;20027;-74
2021/12/23 07:01:17;;;;;;;133.40;82.13;;;-2.00;99.90;;;;;;4956408;29;20035;-71
2021/12/23 07:04:06;;;;;;;142.48;79.43;;;-2.00;99.90;;;;;;4955697;29;20023;-75
2021/12/23 07:06:34;;;;;;;133.90;69.95;;;-1.90;99.90;;;;;;4956457;29;20039;-77
2021/12/23 07:09:04;;;;;;;111.30;65.40;;;-1.70;99.90;;;;;;4955154;29;20516;-78
2021/12/23 07:11:32;;;;;;;101.45;54.90;;;-1.60;99.90;;;;;;4955940;29;20023;-77
2021/12/23 07:13:58;;;;;;;90.10;51.75;;;-1.40;99.90;;;;;;4956632;29;20098;-73
2021/12/23 07:16:24;;;;;;;93.25;51.75;;;-1.30;99.90;;;;;;4956435;29;20110;-72
2021/12/23 07:18:50;;;;;;;81.53;50.53;;;-1.20;99.90;;;;;;4956165;29;20102;-78
2021/12/23 07:21:17;;;;;;;94.75;51.25;;;-1.10;99.90;;;;;;4956342;29;20038;-77
2021/12/23 07:23:43;;;;;;;88.13;47.78;;;-1.10;99.90;;;;;;4956096;29;20385;-77
2021/12/23 07:26:08;;;;;;;102.68;55.20;;;-1.10;99.90;;;;;;4955791;29;20145;-71
2021/12/23 07:28:34;;;;;;;99.38;55.83;;;-1.10;99.90;;;;;;4955566;29;20023;-76
2021/12/23 07:31:00;;;;;;;101.43;56.85;;;-1.10;99.90;;;;;;4956013;29;20027;-72
2021/12/23 07:33:26;;;;;;;103.30;49.72;;;-1.00;99.90;;;;;;4955552;29;20041;-77
2021/12/23 07:35:52;;;;;;;77.25;46.78;;;-1.10;99.90;;;;;;4955661;28;20027;-72
2021/12/23 07:38:18;;;;;;;82.20;48.85;;;-1.00;99.90;;;;;;4955908;29;20039;-77
2021/12/23 07:40:44;;;;;;;87.20;53.05;;;-1.00;99.90;;;;;;4954991;29;20410;-77
2021/12/23 07:43:21;;;;;;;102.95;64.63;;;-1.10;99.90;;;;;;4955577;29;20027;-71
2021/12/23 07:45:47;;;;;;;99.20;62.28;;;-1.10;99.90;;;;;;4954344;29;20383;-78
2021/12/23 07:48:13;;;;;;;74.03;47.53;;;-1.10;99.90;;;;;;4955516;29;20381;-73
2021/12/23 07:50:42;;;;;;;89.03;51.17;;;-1.20;99.90;;;;;;4953737;28;20011;-77
2021/12/23 07:53:08;;;;;;;79.47;46.40;;;-1.10;99.90;;;;;;4955159;29;20042;-77
2021/12/23 07:55:34;;;;;;;79.05;46.90;;;-1.10;99.90;;;;;;4955213;29;20359;-77
2021/12/23 07:58:00;;;;;;;71.63;42.63;;;-1.10;99.90;;;;;;4953426;28;20093;-76
2021/12/23 08:00:29;;;;;;;74.88;44.53;;;-1.00;99.90;;;;;;4952500;29;20482;-76
2021/12/23 08:02:55;;;;;;;68.10;40.70;;;-0.90;99.90;;;;;;4952887;29;20111;-78
2021/12/23 08:05:21;;;;;;;66.82;42.42;;;-0.80;99.90;;;;;;4953129;29;20082;-76
2021/12/23 08:07:47;;;;;;;65.07;41.17;;;-0.80;99.90;;;;;;4953889;29;20086;-77
2021/12/23 08:10:14;;;;;;;65.80;42.35;;;-0.70;99.90;;;;;;4952670;29;20062;-77
2021/12/23 08:12:39;;;;;;;67.93;42.90;;;-0.60;99.90;;;;;;4953762;29;20035;-72
2021/12/23 08:15:06;;;;;;;67.32;38.78;;;-0.60;99.90;;;;;;4954062;29;20485;-77
2021/12/23 08:17:32;;;;;;;60.80;39.05;;;-0.50;99.90;;;;;;4953707;29;20390;-77
2021/12/23 08:19:58;;;;;;;56.95;36.92;;;-0.40;99.90;;;;;;4953627;29;20031;-74
2021/12/23 08:22:24;;;;;;;66.18;39.05;;;-0.30;99.90;;;;;;4953677;29;20030;-78
2021/12/23 08:24:49;;;;;;;73.18;45.38;;;-0.30;99.90;;;;;;4953968;29;20449;-76
2021/12/23 08:27:15;;;;;;;64.38;42.95;;;-0.20;99.90;;;;;;4953694;29;20106;-77
2021/12/23 08:29:41;;;;;;;64.88;39.00;;;-0.20;99.90;;;;;;4954315;29;20102;-78
2021/12/23 08:32:07;;;;;;;72.80;40.75;;;-0.30;99.90;;;;;;4954659;29;20106;-71
2021/12/23 08:34:35;;;;;;;71.55;45.80;;;-0.30;99.90;;;;;;4954910;29;20074;-78
2021/12/23 08:37:02;;;;;;;68.05;41.67;;;-0.30;99.90;;;;;;4954243;29;20031;-77
2021/12/23 08:39:27;;;;;;;68.43;42.97;;;-0.40;99.90;;;;;;4952458;29;20039;-72
2021/12/23 08:41:53;;;;;;;63.60;37.95;;;-0.50;99.90;;;;;;4953973;29;20030;-71
2021/12/23 08:44:19;;;;;;;68.95;42.75;;;-0.60;99.90;;;;;;4954135;29;20039;-75
2021/12/23 08:46:45;;;;;;;76.97;43.08;;;-0.50;99.90;;;;;;4954503;29;20042;-77
2021/12/23 08:49:11;;;;;;;68.72;40.38;;;-0.60;99.90;;;;;;4954110;29;20023;-77
2021/12/23 08:51:38;;;;;;;59.58;37.65;;;-0.50;99.90;;;;;;4953604;29;20533;-75
2021/12/23 08:54:04;;;;;;;56.42;33.97;;;-0.50;99.90;;;;;;4954309;29;20078;-78
2021/12/23 08:56:30;;;;;;;62.90;37.45;;;-0.50;99.90;;;;;;4953811;29;20027;-77
2021/12/23 08:58:56;;;;;;;60.67;35.80;;;-0.50;99.90;;;;;;4953958;29;20038;-75
2021/12/23 09:01:22;;;;;;;54.58;34.20;;;-0.50;99.90;;;;;;4953761;28;20440;-74
2021/12/23 09:03:48;;;;;;;55.72;36.22;;;-0.40;99.90;;;;;;4953393;29;20385;-76
2021/12/23 09:06:14;;;;;;;54.33;32.63;;;-0.30;99.90;;;;;;4953746;29;20055;-77
2021/12/23 09:08:40;;;;;;;56.60;34.13;;;-0.20;99.90;;;;;;4953863;29;20042;-78
2021/12/23 09:11:06;;;;;;;57.25;33.13;;;-0.10;99.90;;;;;;4953887;29;20032;-77
2021/12/23 09:13:32;;;;;;;53.97;34.90;;;-0.10;99.90;;;;;;4954448;29;20027;-74
2021/12/23 09:15:58;;;;;;;56.30;35.92;;;0.00;99.90;;;;;;4954149;29;20462;-72
2021/12/23 09:18:25;;;;;;;60.58;36.25;;;0.20;99.90;;;;;;4954681;29;20466;-77
2021/12/23 09:20:53;;;;;;;96.75;55.58;;;0.20;99.90;;;;;;4954266;29;20369;-78
2021/12/23 09:23:19;;;;;;;69.95;41.63;;;0.30;99.90;;;;;;4954016;29;20031;-73
2021/12/23 09:25:47;;;;;;;61.58;39.42;;;0.30;99.90;;;;;;4953549;29;20118;-77
2021/12/23 09:33:30;;;;;;;58.13;35.92;;;0.30;99.90;;;;;;4949347;29;20118;-72
2021/12/23 09:35:56;;;;;;;52.55;35.50;;;0.40;99.90;;;;;;4953873;29;20120;-71
2021/12/23 09:38:28;;;;;;;52.05;33.10;;;0.40;99.90;;;;;;4954115;29;20130;-72
2021/12/23 09:41:03;;;;;;;53.88;31.75;;;0.40;99.90;;;;;;4953983;29;20032;-78
2021/12/23 09:43:31;;;;;;;61.88;36.50;;;0.40;99.90;;;;;;4954027;29;20027;-71
2021/12/23 09:45:58;;;;;;;58.10;36.05;;;0.40;99.90;;;;;;4953974;29;20446;-72
2021/12/23 09:48:27;;;;;;;49.78;30.92;;;0.40;99.90;;;;;;4954068;28;20498;-73
2021/12/23 09:50:56;;;;;;;53.88;33.22;;;0.40;99.90;;;;;;4954101;29;20133;-77
2021/12/23 09:53:23;;;;;;;51.38;31.83;;;0.50;99.90;;;;;;4953844;29;20071;-77
2021/12/23 09:55:50;;;;;;;61.92;38.10;;;0.50;99.90;;;;;;4953738;29;20023;-78
2021/12/23 09:58:18;;;;;;;61.75;38.00;;;0.50;99.90;;;;;;4954055;29;20047;-76
2021/12/23 10:00:45;;;;;;;61.67;37.13;;;0.50;99.90;;;;;;4953436;29;20098;-77
2021/12/23 10:03:17;;;;;;;57.90;35.45;;;0.60;99.90;;;;;;4954128;29;20034;-77
2021/12/23 10:05:43;;;;;;;63.40;38.78;;;0.70;99.90;;;;;;4953636;28;20055;-76
2021/12/23 10:08:11;;;;;;;59.47;34.20;;;0.70;99.90;;;;;;4954214;29;20039;-77
2021/12/23 10:10:52;;;;;;;92.72;48.20;;;0.70;99.90;;;;;;4953939;29;20032;-72
2021/12/23 10:38:06;;;;;;;74.93;39.72;;;1.00;99.90;;;;;;4916597;29;20463;-77
2021/12/23 10:40:34;;;;;;;69.88;43.75;;;1.00;99.90;;;;;;4916115;29;20075;-75
2021/12/23 10:43:00;;;;;;;69.97;44.83;;;1.00;99.90;;;;;;4916152;29;20474;-75
2021/12/23 10:45:42;;;;;;;77.53;45.20;;;1.00;99.90;;;;;;4916461;29;20059;-77
2021/12/23 10:48:12;;;;;;;71.78;45.58;;;1.10;99.90;;;;;;4916547;29;20055;-73
2021/12/23 10:50:51;;;;;;;89.68;49.25;;;0.90;99.90;;;;;;4916645;29;20024;-78
2021/12/23 10:53:52;;;;;;;104.65;56.55;;;0.90;99.90;;;;;;4937553;29;20418;-77
2021/12/23 10:59:21;;;;;;;80.40;43.80;;;0.90;99.90;;;;;;4956737;29;20545;-76
2021/12/23 11:02:12;;;;;;;86.60;43.35;;;0.90;99.90;;;;;;4956400;29;20034;-77
2021/12/23 11:05:12;;;;;;;82.80;45.55;;;0.90;99.90;;;;;;4956400;29;20023;-77
2021/12/23 11:08:37;;;;;;;75.75;42.63;;;0.80;99.90;;;;;;4956878;29;20406;-76
2021/12/23 11:11:03;;;;;;;68.68;41.33;;;1.00;99.90;;;;;;4953209;29;20043;-77
2021/12/23 11:35:50;;;;;;;63.60;41.92;;;1.90;99.90;;;;;;4954970;29;20478;-72
2021/12/23 11:41:19;;;;;;;68.75;39.03;;;1.80;99.90;;;;;;4954594;29;20134;-75
2021/12/23 11:43:51;;;;;;;60.47;39.80;;;1.80;99.90;;;;;;4958115;29;20027;-77
2021/12/23 11:46:25;;;;;;;76.95;43.75;;;1.90;99.90;;;;;;4957923;29;20085;-78
2021/12/23 11:48:54;;;;;;;76.63;46.72;;;2.00;99.90;;;;;;4959342;28;20039;-72
2021/12/23 11:51:29;;;;;;;89.50;50.75;;;2.00;99.90;;;;;;4958064;29;20046;-72
2021/12/23 11:53:57;;;;;;;69.70;42.67;;;2.00;99.90;;;;;;4960310;29;20089;-75
2021/12/23 11:56:25;;;;;;;72.35;43.72;;;2.10;99.90;;;;;;4962074;29;20023;-75
2021/12/23 11:58:51;;;;;;;68.13;43.22;;;2.20;99.90;;;;;;4961830;28;20067;-73
2021/12/23 12:01:24;;;;;;;74.72;44.35;;;2.20;99.90;;;;;;4962328;28;20162;-77
2021/12/23 12:03:56;;;;;;;69.60;36.05;;;2.30;99.90;;;;;;4959723;28;20398;-73
2021/12/23 12:06:25;;;;;;;109.47;60.42;;;2.20;99.90;;;;;;4956498;28;20043;-74
2021/12/23 12:09:09;;;;;;;80.60;46.13;;;2.10;99.90;;;;;;4956832;29;20478;-75
2021/12/23 12:11:35;;;;;;;61.33;36.08;;;2.10;99.90;;;;;;4965387;29;20037;-75
2021/12/23 12:14:01;;;;;;;55.95;35.95;;;2.10;99.90;;;;;;4956530;29;20028;-75
2021/12/23 12:16:33;;;;;;;53.83;32.05;;;2.10;99.90;;;;;;4956560;29;20041;-74
2021/12/23 12:19:01;;;;;;;55.92;35.20;;;1.80;99.90;;;;;;4957433;29;20057;-75
2021/12/23 12:21:34;;;;;;;54.63;34.33;;;1.80;99.90;;;;;;4955156;29;20390;-73
2021/12/23 12:24:13;;;;;;;67.93;39.20;;;1.80;99.90;;;;;;4956114;29;20072;-75
2021/12/23 12:26:58;;;;;;;54.75;35.42;;;1.70;99.90;;;;;;4955414;29;20039;-72
2021/12/23 12:29:38;;;;;;;55.60;33.72;;;1.60;99.90;;;;;;4955827;29;20031;-75
2021/12/23 12:32:05;;;;;;;67.72;38.17;;;1.60;99.90;;;;;;4955780;29;20039;-72
2021/12/23 12:34:34;;;;;;;126.97;68.53;;;1.60;99.90;;;;;;4956524;29;20020;-77
2021/12/23 12:37:01;;;;;;;56.30;35.35;;;1.60;99.90;;;;;;4948806;29;20043;-73
2021/12/23 12:39:46;;;;;;;124.65;80.88;;;1.70;99.90;;;;;;4964054;29;20031;-78
2021/12/23 12:42:28;;;;;;;63.05;41.67;;;1.70;99.90;;;;;;4967230;29;20035;-78
2021/12/23 12:45:03;;;;;;;46.15;30.55;;;1.70;99.90;;;;;;4964669;29;20030;-73
2021/12/23 12:47:36;;;;;;;70.55;39.08;;;1.80;99.90;;;;;;4952087;29;20039;-73
2021/12/23 12:50:17;;;;;;;61.03;35.53;;;1.90;99.90;;;;;;4953158;29;20023;-75
2021/12/23 12:52:46;;;;;;;67.40;40.50;;;1.90;99.90;;;;;;4937174;29;20038;-77
2021/12/23 12:55:22;;;;;;;77.15;43.15;;;2.00;99.90;;;;;;4951109;29;20028;-79
2021/12/23 12:57:51;;;;;;;97.13;54.58;;;2.00;99.90;;;;;;4950645;29;20039;-74
2021/12/23 13:00:40;;;;;;;98.90;56.13;;;2.10;99.90;;;;;;4947999;29;20035;-76
2021/12/23 13:03:16;;;;;;;79.85;45.67;;;2.10;99.90;;;;;;4935577;29;20524;-75
2021/12/23 13:05:44;;;;;;;54.25;35.20;;;2.20;99.90;;;;;;4941601;28;20054;-78
2021/12/23 13:08:16;;;;;;;121.28;71.55;;;2.10;99.90;;;;;;4949356;28;20035;-76
2021/12/23 13:10:57;;;;;;;195.18;108.55;;;2.20;99.90;;;;;;4950486;28;20035;-77
2021/12/23 13:14:00;;;;;;;82.15;43.60;;;2.20;99.90;;;;;;4955608;29;20050;-77
2021/12/23 13:16:55;;;;;;;65.50;40.95;;;2.20;99.90;;;;;;4936225;29;20024;-77
2021/12/23 13:19:37;;;;;;;65.50;41.55;;;2.20;99.90;;;;;;4959079;29;20054;-77
2021/12/23 13:22:08;;;;;;;84.05;42.40;;;2.30;99.90;;;;;;4956325;29;20029;-76
2021/12/23 13:24:35;;;;;;;83.68;47.17;;;2.30;99.90;;;;;;4948348;28;20027;-72
2021/12/23 13:27:01;;;;;;;73.18;41.40;;;2.30;99.90;;;;;;4950929;29;20031;-77
2021/12/23 13:29:30;;;;;;;77.88;42.33;;;2.30;99.90;;;;;;4946371;29;20031;-78
2021/12/23 13:31:59;;;;;;;77.57;46.05;;;2.30;99.90;;;;;;4954421;29;20090;-77
2021/12/23 13:34:30;;;;;;;81.53;47.33;;;2.30;99.90;;;;;;4948056;29;20036;-76
2021/12/23 13:37:06;;;;;;;80.95;46.83;;;2.40;99.90;;;;;;4938758;29;20565;-74
2021/12/23 13:39:40;;;;;;;74.07;45.38;;;2.40;99.90;;;;;;4954295;29;20031;-77
2021/12/23 13:42:12;;;;;;;82.07;47.00;;;2.50;99.90;;;;;;4961448;28;20030;-77